METAR Data
IDs: Format: Raw Decoded Include TAF

Data at: 1312 UTC 16 Oct 2018

PASC 161253Z 07021G28KT 7SM OVC009 M03/M04 A2981 RMK AO2 PK WND 06031/1238 SNE13 SLP094 P0000 T10281044 $
PASC 161153Z 08018KT 5SM -SN BR OVC008 M03/M04 A2985 RMK AO2 PK WND 06031/1117 SNB49 SLP110 P0000 60000 I6001 T10331044 11033 21039 56023 $
PASC 161132Z 06020G27KT 8SM OVC008 M03/M04 A2986 RMK AO2 PK WND 06031/1117 T10331044 $
PASC 161053Z 07024G30KT 10SM OVC010 M03/M05 A2988 RMK AO2 PK WND 07030/1053 SLP118 T10331050 $
PASC 161025Z 08020G27KT 8SM OVC010 M03/M05 A2989 RMK AO2 PK WND 07028/1002 T10331050 $
PASC 160953Z 07021KT 8SM OVC009 M04/M05 A2990 RMK AO2 PK WND 06028/0947 SNE45 SLP125 P0000 T10391050 $
PASC 160853Z 07020KT 4SM -SN BR OVC009 M04/M05 A2992 RMK AO2 PK WND 07027/0822 SNB47 SLP134 P0000 60000 I1001 I3001 T10391050 410281044 58014 $
PASC 160753Z 08020G27KT 9SM OVC009 M04/M05 A2995 RMK AO2 PK WND 06027/0745 SLP142 T10391050 $
PASC 160714Z 07020KT 10SM OVC009 M04/M05 A2996 RMK AO2 T10391050 $
PASC 160653Z 07019KT 10SM OVC010 M04/M06 A2996 RMK AO2 PK WND 07026/0641 SLP147 T10391056 $
PASC 160650Z 07019G26KT 10SM OVC010 M04/M06 A2996 RMK AO2 PK WND 07026/0641 $
PASC 160601Z 07016KT 10SM OVC009 M04/M05 A2997 RMK AO2 T10391050 $
PASC 160553Z 08014G21KT 9SM OVC010 M04/M05 A2998 RMK AO2 SNB35E47 SLP153 P0000 60000 I1002 I6007 T10391050 11033 21044 58020 $
PASC 160525Z 07013KT 10SM OVC010 M03/M04 A3000 RMK AO2 T10331044
PASC 160453Z 08012KT 3SM BR OVC007 M03/M04 A3001 RMK AO2 SLP165 I1001 T10331044
PASC 160353Z 07016KT 3SM BR OVC005 M04/M05 A3002 RMK AO2 SLP166 I1002 T10391050
PASC 160301Z 06011KT 2SM BR OVC005 M04/M05 A3004 RMK AO2 T10391050
PASC 160253Z 06013KT 8SM OVC005 M04/M05 A3004 RMK AO2 SLP172 I1002 I3002 T10441050 58011
PASC 160241Z 06012KT 3SM R06/6000VP6000FT BR OVC005 M04/M05 A3004 RMK AO2 I1002 T10391050
PASC 160215Z 06011KT 1 1/2SM R06/4000VP6000FT BR OVC005 M04/M05 A3005 RMK AO2 I1001 T10391050
PASC 160202Z 06011KT 2SM BR BKN004 OVC012 M04/M05 A3005 RMK AO2 T10441050
PASC 160153Z 07009KT 2SM BR SCT004 BKN008 OVC013 M04/M05 A3006 RMK AO2 SLP181 T10391050
PASC 160100Z 07011KT 2SM R06/4000VP6000FT BR BKN004 OVC013 M04/M04 A3007 RMK AO2 T10391044
PASC 160053Z 07014KT 2SM R06/4000VP6000FT BR BKN005 OVC013 M04/M05 A3007 RMK AO2 SLP182 T10391050
PASC 160004Z 06011KT 3SM R06/3500VP6000FT BR BKN004 OVC008 M04/M05 A3007 RMK AO2 T10391050
PASC 152353Z 06012KT 3SM R06/4500VP6000FT BR OVC006 M04/M05 A3007 RMK AO2 SNB04E05 SLP184 P0000 60000 I6005 T10391050 11028 21039 58010
PASC 152253Z 07012KT 10SM BKN007 M03/M04 A3009 RMK AO2 SNB02E11 SLP190 P0000 T10331044
PASC 152153Z 08011KT 6SM BR BKN005 BKN060 M03/M04 A3010 RMK AO2 SNB29E38 SLP195 P0000 T10331044 $
PASC 152149Z 07010KT 6SM BR BKN005 BKN060 M03/M04 A3010 RMK AO2 SNB29E38 P0000 $
PASC 152053Z 07010KT 2SM R06/3000VP6000FT BR BKN004 BKN008 OVC060 M03/M04 A3010 RMK AO2 SLP194 I1002 I3005 T10331044 53006
PASC 152044Z 07010KT 2SM R06/4000VP6000FT BR BKN006 OVC060 M03/M04 A3010 RMK AO2 I1002 T10331039
PASC 152035Z 08012KT 2SM R06/5500VP6000FT BR BKN004 BKN008 OVC060 M03/M04 A3010 RMK AO2 CIG 002V007 I1001 T10331044
PASC 151953Z 06010KT 5SM BR OVC005 M03/M04 A3009 RMK AO2 SLP192 I1002 T10331039
PASC 151853Z 08009KT 3SM BR OVC005 M04/M04 A3009 RMK AO2 SLP189 I1001 T10391044
PASC 151753Z 07012KT 9SM OVC005 M03/M04 A3008 RMK AO2 SLP188 I1001 I6003 T10331044 11033 21044 50003 $
PASC 151738Z 07010KT 8SM OVC005 M03/M04 A3008 RMK AO2 I1000 T10331044 $
PASC 151722Z COR 07008KT 3SM R06/6000VP6000FT BR OVC005 M04/M04 A3009 RMK AO2 I1000 T10391044 $
PASC 151703Z 06007KT 2SM R06/4500VP6000FT BR OVC002 M04/M05 A3009 RMK AO2 T10391050 $
PASC 151650Z 06007KT 1 3/4SM R06/4000VP6000FT BR OVC002 M04/M05 A3009 RMK AO2 SLP188 I1001 T10391050 $
PASC 151649Z 06007KT 1 3/4SM R06/4000VP6000FT BR OVC002 M04/M05 A3008 RMK AO2 I1001 $
PASC 151553Z 08005KT 6SM BR BKN002 OVC065 M04/M05 A3008 RMK AO2 SLP188 I1000 T10391050 $
PASC 151517Z 08005KT 2 1/2SM R06/6000VP6000FT BR BKN002 OVC065 M04/M05 A3008 RMK AO2 T10391050 $
PASC 151453Z 07006KT 10SM OVC005 M04/M05 A3008 RMK AO2 CIG 002V008 SLP185 I1000 I3001 T10391050 53003 $
PASC 151353Z 05007KT 4SM BR BKN004 OVC016 M03/M04 A3007 RMK AO2 SLP183 I1001 T10331044 /
PASC 151348Z 06007KT 3SM BR BKN004 BKN008 OVC016 M03/M04 A3007 RMK AO2 I1001 $
PASC 151337Z 05007KT 2SM BR OVC006 M03/M04 A3007 RMK AO2 I1001 T10331044 $
PASC 151253Z 04006KT 10SM BKN007 M04/M05 A3007 RMK AO2 CIG 004V008 SLP183 T10391050 $
PASC 151153Z 05007KT 10SM OVC008 M03/M04 A3007 RMK AO2 CIG 003V012 SLP182 I1000 I6000 T10331044 11028 21044 53005 $
PASC 151053Z 05007KT 10SM BKN008 OVC070 M03/M04 A3006 RMK AO2 CIG 005V010 SLP180 T10331044 $
PASC 151017Z 06007KT 9SM OVC009 M03/M04 A3006 RMK AO2 T10331044 $
PASC 150953Z 06009KT 10SM OVC010 M03/M04 A3006 RMK AO2 SLP178 T10331044 $
PASC 150943Z 06007KT 10SM OVC010 M03/M04 A3005 RMK AO2 T10331044 $
PASC 150928Z 07006KT 7SM OVC009 M03/M04 A3005 RMK AO2 T10331039 $
PASC 150853Z 07005KT 9SM BKN011 OVC016 M04/M05 A3005 RMK AO2 SLP177 T10391050 410221044 53005 $
PASC 150827Z 08005KT 10SM OVC015 M03/M04 A3005 RMK AO2 T10331044 $
PASC 150753Z 08005KT 9SM SCT007 BKN011 OVC021 M04/M05 A3005 RMK AO2 SLP175 T10391050 $
PASC 150745Z 07006KT 10SM FEW007 BKN011 OVC019 M04/M05 A3004 RMK AO2 T10391050 $
PASC 150714Z 07004KT 10SM SCT011 OVC018 M04/M04 A3004 RMK AO2 T10391044 $
PASC 150653Z 08004KT 10SM BKN010 BKN015 OVC021 M03/M04 A3004 RMK AO2 SLP173 T10331044 $
PASC 150629Z 06003KT 7SM SCT007 BKN010 OVC022 M03/M04 A3004 RMK AO2 T10281039 $
PASC 150553Z 07006KT 9SM BKN006 OVC018 M03/M04 A3004 RMK AO2 CIG 005V010 SLP172 60000 T10331044 11022 21033 53007 $
PASC 150545Z 06005KT 10SM BKN005 OVC018 M03/M04 A3004 RMK AO2 CIG 004V010 T10331039 $
PASC 150538Z 07005KT 10SM SCT005 OVC018 M03/M04 A3004 RMK AO2 T10331044 $
PASC 150528Z 07005KT 10SM BKN006 OVC018 M03/M04 A3003 RMK AO2 T10331044 $
PASC 150511Z 07007KT 10SM FEW006 OVC018 M03/M04 A3003 RMK AO2 T10331044 $
PASC 150453Z 07006KT 10SM OVC018 M03/M04 A3002 RMK AO2 SLP168 T10331044 $
PASC 150423Z 07006KT 10SM FEW005 OVC020 M03/M04 A3002 RMK AO2 T10331044 $
PASC 150353Z 07005KT 10SM OVC020 M03/M04 A3002 RMK AO2 SLP166 T10331044 $
PASC 150253Z 07006KT 5SM BR SCT009 OVC020 M03/M04 A3002 RMK AO2 SLP165 60000 T10331044 53008 /
PASC 150200Z 07008KT 5SM BR SCT009 OVC020 M03/M04 A3001 RMK AO2 T10281044 $
PASC 150153Z 07008KT 3SM BR SCT006 BKN009 OVC016 M03/M04 A3001 RMK AO2 SNB0055E08 SLP162 P0000 T10281044 $
PASC 150129Z 06008KT 3SM BR SCT006 BKN009 OVC016 M03/M04 A3000 RMK AO2 SNB0055E08 P0000 T10281039 $